createdAt,value
2018-08-13T00:01:29.240Z,17.40
2018-08-13T00:03:57.347Z,17.40
2018-08-13T00:06:25.482Z,17.30
2018-08-13T00:08:53.646Z,17.30
2018-08-13T00:11:21.826Z,17.20
2018-08-13T00:13:50.249Z,17.20
2018-08-13T00:16:18.367Z,17.20
2018-08-13T00:18:46.511Z,17.10
2018-08-13T00:21:14.648Z,17.00
2018-08-13T00:23:42.788Z,17.00
2018-08-13T00:26:10.915Z,16.90
2018-08-13T00:28:39.040Z,16.80
2018-08-13T00:31:07.152Z,16.70
2018-08-13T00:33:35.271Z,16.70
2018-08-13T00:36:03.383Z,16.70
2018-08-13T00:38:31.511Z,16.70
2018-08-13T00:40:59.619Z,16.70
2018-08-13T00:43:27.750Z,16.50
2018-08-13T00:45:55.890Z,16.30
2018-08-13T00:48:24.023Z,16.10
2018-08-13T00:50:52.159Z,16.00
2018-08-13T00:53:26.965Z,15.90
2018-08-13T00:55:55.081Z,15.80
2018-08-13T00:58:23.198Z,15.80
2018-08-13T01:00:51.356Z,15.70
2018-08-13T01:03:19.953Z,15.80
2018-08-13T01:05:48.086Z,15.90
2018-08-13T01:08:16.231Z,15.90
2018-08-13T01:10:44.384Z,16.00
2018-08-13T01:13:12.551Z,16.00
2018-08-13T01:15:40.712Z,16.00
2018-08-13T01:18:08.865Z,16.00
2018-08-13T01:20:37.059Z,16.00
2018-08-13T01:23:05.194Z,16.00
2018-08-13T01:25:33.426Z,15.90
2018-08-13T01:28:01.543Z,15.90
2018-08-13T01:30:29.730Z,15.90
2018-08-13T01:32:57.856Z,15.80
2018-08-13T01:35:26.027Z,15.80
2018-08-13T01:37:54.223Z,15.80
2018-08-13T01:40:22.355Z,15.80
2018-08-13T01:42:50.551Z,15.80
2018-08-13T01:45:18.687Z,15.80
2018-08-13T01:47:46.810Z,15.70
2018-08-13T01:50:14.970Z,15.60
2018-08-13T01:52:43.138Z,15.50
2018-08-13T01:55:11.653Z,15.40
2018-08-13T01:57:39.778Z,15.30
2018-08-13T02:00:13.193Z,15.20
2018-08-13T02:02:41.319Z,15.10
2018-08-13T02:05:09.475Z,15.10
2018-08-13T02:07:38.039Z,15.20
2018-08-13T02:10:07.463Z,15.20
2018-08-13T02:12:35.620Z,15.20
2018-08-13T02:15:04.597Z,15.30
2018-08-13T02:17:32.704Z,15.30
2018-08-13T02:20:00.838Z,15.30
2018-08-13T02:22:28.960Z,15.30
2018-08-13T02:24:57.262Z,15.20
2018-08-13T02:30:18.168Z,15.20
2018-08-13T02:32:46.315Z,15.20
2018-08-13T02:35:14.428Z,15.20
2018-08-13T02:37:42.665Z,15.10
2018-08-13T02:40:10.953Z,15.10
2018-08-13T02:42:39.071Z,15.10
2018-08-13T02:45:08.628Z,15.20
2018-08-13T02:47:40.592Z,15.10
2018-08-13T02:50:11.235Z,15.10
2018-08-13T02:52:39.692Z,15.00
2018-08-13T02:55:08.592Z,15.00
2018-08-13T02:57:36.724Z,15.10
2018-08-13T03:00:06.271Z,15.10
2018-08-13T03:02:34.395Z,14.90
2018-08-13T03:05:02.540Z,14.80
2018-08-13T03:07:30.665Z,14.70
2018-08-13T03:09:58.813Z,14.70
2018-08-13T03:12:26.927Z,14.70
2018-08-13T03:14:55.064Z,14.60
2018-08-13T03:17:28.189Z,14.70
2018-08-13T03:19:56.620Z,14.70
2018-08-13T03:22:24.804Z,14.80
2018-08-13T03:24:52.912Z,14.80
2018-08-13T03:27:21.176Z,14.80
2018-08-13T03:29:49.311Z,14.90
2018-08-13T03:32:17.496Z,14.80
2018-08-13T03:34:45.605Z,14.70
2018-08-13T03:37:13.739Z,14.60
2018-08-13T03:39:41.846Z,14.60
2018-08-13T03:42:09.960Z,14.70
2018-08-13T03:44:38.112Z,14.60
2018-08-13T03:47:06.251Z,14.60
2018-08-13T03:49:34.404Z,14.60
2018-08-13T03:52:02.566Z,14.60
2018-08-13T03:54:37.296Z,14.60
2018-08-13T03:57:05.607Z,14.60
2018-08-13T03:59:33.843Z,14.50
2018-08-13T04:02:02.005Z,14.50
2018-08-13T04:04:30.132Z,14.60
2018-08-13T04:06:58.255Z,14.60
2018-08-13T04:09:26.439Z,14.60
2018-08-13T04:11:54.574Z,14.50
2018-08-13T04:14:22.728Z,14.50
2018-08-13T04:16:57.002Z,14.50
2018-08-13T04:19:25.287Z,14.60
2018-08-13T04:21:53.439Z,14.60
2018-08-13T04:24:21.575Z,14.50
2018-08-13T04:26:49.811Z,14.50
2018-08-13T04:29:17.967Z,14.40
2018-08-13T04:31:46.162Z,14.30
2018-08-13T04:34:14.426Z,14.30
2018-08-13T04:36:42.602Z,14.40
2018-08-13T04:39:12.627Z,14.40
2018-08-13T04:41:41.418Z,14.40
2018-08-13T04:44:09.613Z,14.50
2018-08-13T04:46:37.792Z,14.50
2018-08-13T04:49:05.930Z,14.60
2018-08-13T04:51:34.467Z,14.60
2018-08-13T04:54:02.715Z,14.70
2018-08-13T04:56:30.997Z,14.70
2018-08-13T04:58:59.320Z,14.80
2018-08-13T05:01:27.471Z,14.80
2018-08-13T05:03:55.645Z,14.70
2018-08-13T05:06:23.779Z,14.80
2018-08-13T05:08:51.918Z,14.90
2018-08-13T05:11:20.039Z,15.00
2018-08-13T05:13:48.203Z,15.00
2018-08-13T05:16:16.327Z,15.10
2018-08-13T05:18:44.558Z,15.10
2018-08-13T05:21:12.692Z,15.20
2018-08-13T05:23:40.845Z,15.30
2018-08-13T05:26:08.964Z,15.40
2018-08-13T05:28:37.093Z,15.50
2018-08-13T05:31:05.262Z,15.60
2018-08-13T05:33:33.406Z,15.70
2018-08-13T05:36:01.574Z,15.80
2018-08-13T05:38:29.702Z,15.80
2018-08-13T05:40:57.958Z,15.90
2018-08-13T05:43:26.120Z,15.90
2018-08-13T05:45:54.258Z,16.00
2018-08-13T05:48:22.395Z,16.10
2018-08-13T05:50:50.529Z,16.30
2018-08-13T05:53:18.677Z,16.40
2018-08-13T05:55:46.825Z,16.50
2018-08-13T05:58:14.991Z,16.70
2018-08-13T06:00:43.171Z,16.90
2018-08-13T06:03:11.350Z,17.10
2018-08-13T06:05:39.414Z,17.40
2018-08-13T06:08:07.533Z,17.60
2018-08-13T06:10:35.639Z,17.70
2018-08-13T06:13:03.796Z,17.90
2018-08-13T06:15:31.948Z,18.10
2018-08-13T06:18:00.126Z,18.30
2018-08-13T06:20:28.220Z,18.60
2018-08-13T06:22:56.406Z,18.90
2018-08-13T06:25:24.519Z,19.30
2018-08-13T06:27:52.636Z,19.60
2018-08-13T06:30:20.763Z,19.90
2018-08-13T06:32:48.866Z,20.30
2018-08-13T06:35:16.981Z,20.50
2018-08-13T06:37:45.131Z,20.80
2018-08-13T06:40:13.578Z,21.20
2018-08-13T06:42:41.987Z,21.50
2018-08-13T06:45:10.769Z,21.80
2018-08-13T06:47:39.785Z,22.00
2018-08-13T06:50:09.916Z,22.30
2018-08-13T06:52:38.061Z,22.40
2018-08-13T06:55:06.379Z,22.60
2018-08-13T06:57:34.974Z,22.70
2018-08-13T07:00:03.394Z,22.80
2018-08-13T07:02:31.638Z,23.00
2018-08-13T07:04:59.806Z,23.20
2018-08-13T07:07:28.043Z,23.30
2018-08-13T07:09:56.358Z,23.40
2018-08-13T07:12:24.507Z,23.60
2018-08-13T07:14:52.706Z,23.70
2018-08-13T07:17:20.960Z,23.90
2018-08-13T07:19:49.438Z,24.10
2018-08-13T07:22:17.687Z,24.30
2018-08-13T07:24:45.775Z,24.50
2018-08-13T07:27:13.916Z,24.70
2018-08-13T07:29:42.131Z,24.90
2018-08-13T07:32:10.283Z,25.20
2018-08-13T07:34:38.422Z,25.50
2018-08-13T07:37:06.568Z,25.80
2018-08-13T07:39:34.710Z,26.10
2018-08-13T07:42:02.868Z,26.30
2018-08-13T07:44:30.999Z,26.60
2018-08-13T07:46:59.318Z,26.70
2018-08-13T07:49:27.435Z,26.80
2018-08-13T07:51:55.605Z,26.90
2018-08-13T07:54:23.829Z,27.10
2018-08-13T07:56:52.013Z,27.30
2018-08-13T07:59:20.146Z,27.60
2018-08-13T08:01:48.408Z,27.80
2018-08-13T08:04:16.551Z,27.90
2018-08-13T08:06:44.669Z,28.00
2018-08-13T08:09:13.501Z,28.20
2018-08-13T08:11:41.967Z,28.20
2018-08-13T08:14:10.104Z,28.30
2018-08-13T08:16:38.340Z,28.50
2018-08-13T08:19:06.506Z,28.60
2018-08-13T08:21:34.695Z,28.80
2018-08-13T08:24:02.912Z,28.80
2018-08-13T08:26:31.048Z,28.80
2018-08-13T08:28:59.292Z,28.60
2018-08-13T08:31:27.432Z,28.80
2018-08-13T08:33:55.583Z,29.10
2018-08-13T08:36:23.760Z,29.20
2018-08-13T08:38:51.894Z,29.20
2018-08-13T08:41:20.044Z,29.30
2018-08-13T08:43:48.173Z,29.00
2018-08-13T08:46:16.286Z,28.90
2018-08-13T08:48:44.420Z,28.80
2018-08-13T08:51:12.570Z,28.70
2018-08-13T08:53:40.786Z,28.60
2018-08-13T08:56:08.840Z,28.40
2018-08-13T08:58:36.963Z,28.30
2018-08-13T09:01:05.120Z,28.30
2018-08-13T09:03:33.300Z,28.20
2018-08-13T09:06:01.506Z,28.30
2018-08-13T09:08:29.598Z,28.30
2018-08-13T09:10:57.729Z,28.30
2018-08-13T09:13:25.991Z,28.00
2018-08-13T09:15:54.211Z,27.80
2018-08-13T09:18:33.851Z,27.70
2018-08-13T09:21:17.335Z,27.50
2018-08-13T09:23:56.962Z,27.20
2018-08-13T09:26:36.552Z,27.30
2018-08-13T09:29:16.435Z,27.20
2018-08-13T09:32:53.914Z,27.20
2018-08-13T09:35:26.387Z,26.90
2018-08-13T09:37:56.079Z,26.70
2018-08-13T09:40:25.864Z,26.70
2018-08-13T09:42:54.220Z,26.50
2018-08-13T09:45:22.344Z,26.60
2018-08-13T09:47:50.510Z,26.40
2018-08-13T09:50:19.332Z,26.10
2018-08-13T09:52:48.352Z,26.00
2018-08-13T09:55:17.216Z,26.00
2018-08-13T09:57:46.599Z,25.90
2018-08-13T10:00:24.021Z,25.70
2018-08-13T10:02:52.339Z,25.60
2018-08-13T10:05:20.575Z,25.80
2018-08-13T10:07:48.816Z,25.80
2018-08-13T10:10:18.690Z,25.50
2018-08-13T10:12:47.863Z,25.60
2018-08-13T10:15:16.132Z,25.60
2018-08-13T10:17:44.467Z,25.50
2018-08-13T10:20:14.857Z,25.50
2018-08-13T10:22:43.039Z,25.30
2018-08-13T10:25:11.825Z,25.10
2018-08-13T10:27:40.294Z,25.00
2018-08-13T10:30:09.807Z,24.80
2018-08-13T10:32:38.155Z,24.60
2018-08-13T10:35:06.681Z,24.50
2018-08-13T10:37:34.901Z,24.70
2018-08-13T10:40:03.084Z,24.80
2018-08-13T10:42:31.215Z,24.80
2018-08-13T10:45:00.162Z,24.70
2018-08-13T10:47:28.327Z,24.70
2018-08-13T10:49:56.513Z,24.70
2018-08-13T10:52:24.773Z,24.60
2018-08-13T10:54:52.956Z,24.50
2018-08-13T10:57:21.163Z,24.50
2018-08-13T10:59:49.335Z,24.60
2018-08-13T11:02:17.478Z,24.80
2018-08-13T11:04:45.623Z,24.90
2018-08-13T11:07:13.779Z,25.00
2018-08-13T11:09:41.964Z,25.00
2018-08-13T11:12:10.201Z,25.00
2018-08-13T11:14:38.373Z,25.10
2018-08-13T11:17:06.563Z,25.20
2018-08-13T11:19:35.203Z,25.20
2018-08-13T11:22:03.363Z,25.00
2018-08-13T11:24:31.499Z,24.90
2018-08-13T11:26:59.710Z,24.90
2018-08-13T11:29:27.831Z,24.50
2018-08-13T11:31:55.951Z,24.20
2018-08-13T11:34:24.382Z,24.00
2018-08-13T11:36:52.636Z,23.90
2018-08-13T11:39:20.795Z,23.80
2018-08-13T11:41:49.198Z,23.80
2018-08-13T11:44:17.428Z,23.70
2018-08-13T11:46:45.570Z,23.60
2018-08-13T11:49:14.281Z,23.50
2018-08-13T11:51:42.411Z,23.50
2018-08-13T11:54:10.531Z,23.50
2018-08-13T11:56:39.956Z,23.30
2018-08-13T11:59:08.137Z,23.40
2018-08-13T12:01:36.310Z,23.30
2018-08-13T12:04:04.580Z,23.20
2018-08-13T12:06:32.729Z,23.20
2018-08-13T12:09:00.935Z,23.20
2018-08-13T12:11:29.052Z,23.20
2018-08-13T12:13:57.239Z,23.30
2018-08-13T12:16:25.325Z,23.20
2018-08-13T12:18:53.503Z,23.30
2018-08-13T12:21:21.620Z,23.40
2018-08-13T12:23:50.634Z,23.50
2018-08-13T12:26:18.815Z,23.40
2018-08-13T12:28:50.716Z,23.50
2018-08-13T12:31:19.027Z,23.50
2018-08-13T12:33:47.169Z,23.50
2018-08-13T12:36:15.284Z,23.60
2018-08-13T12:38:43.502Z,23.60
2018-08-13T12:41:24.377Z,23.70
2018-08-13T16:43:09.629Z,25.30
2018-08-13T16:45:52.505Z,25.50
2018-08-13T16:48:24.217Z,25.30
2018-08-13T16:50:52.293Z,25.00
2018-08-13T16:53:32.089Z,25.00
2018-08-13T16:56:00.183Z,25.00
2018-08-13T16:58:28.629Z,24.90
2018-08-13T17:00:57.402Z,24.70
2018-08-13T17:03:25.533Z,24.50
2018-08-13T17:05:54.225Z,24.30
2018-08-13T17:08:22.356Z,24.20
2018-08-13T17:10:50.462Z,24.10
2018-08-13T17:13:18.623Z,24.00
2018-08-13T17:15:46.724Z,23.90
2018-08-13T17:18:15.088Z,23.90
2018-08-13T17:20:43.297Z,23.90
2018-08-13T17:23:11.580Z,23.90
2018-08-13T17:25:39.698Z,23.90
2018-08-13T17:28:08.018Z,23.80
2018-08-13T17:30:36.127Z,23.70
2018-08-13T17:33:04.662Z,23.70
2018-08-13T17:35:34.115Z,23.50
2018-08-13T17:38:03.028Z,23.50
2018-08-13T17:40:31.270Z,23.40
2018-08-13T17:42:59.512Z,23.50
2018-08-13T17:45:27.547Z,23.60
2018-08-13T17:47:55.678Z,23.50
2018-08-13T17:50:24.389Z,23.40
2018-08-13T17:58:38.383Z,23.30
2018-08-13T18:01:07.319Z,23.30
2018-08-13T18:03:35.795Z,23.20
2018-08-13T18:06:04.297Z,23.10
2018-08-13T18:08:32.612Z,23.10
2018-08-13T18:11:01.179Z,23.10
2018-08-13T18:13:29.611Z,23.10
2018-08-13T18:21:54.354Z,23.10
2018-08-13T18:24:32.540Z,23.10
2018-08-13T18:27:00.756Z,23.00
2018-08-13T18:29:30.911Z,23.10
2018-08-13T18:32:01.444Z,22.80
2018-08-13T18:34:29.558Z,22.80
2018-08-13T18:36:59.755Z,22.60
2018-08-13T18:39:28.961Z,22.50
2018-08-13T18:42:01.495Z,22.30
2018-08-13T18:44:30.641Z,22.30
2018-08-13T18:47:10.649Z,22.20
2018-08-13T18:49:42.618Z,22.10
2018-08-13T18:52:14.422Z,22.00
2018-08-13T18:54:57.319Z,22.00
2018-08-13T18:57:30.026Z,21.90
2018-08-13T19:00:00.227Z,21.90
2018-08-13T19:02:28.346Z,21.80
2018-08-13T19:05:01.305Z,21.70
2018-08-13T19:07:40.583Z,21.60
2018-08-13T19:10:12.547Z,21.50
2018-08-13T19:12:42.609Z,21.50
2018-08-13T19:15:13.489Z,21.40
2018-08-13T19:17:48.159Z,21.30
2018-08-13T19:20:26.241Z,21.20
2018-08-13T19:23:04.807Z,21.20
2018-08-13T19:25:56.448Z,21.10
2018-08-13T19:28:26.538Z,21.00
2018-08-13T19:30:56.663Z,21.00
2018-08-13T19:33:28.987Z,21.00
2018-08-13T19:36:02.730Z,21.00
2018-08-13T19:38:36.369Z,20.90
2018-08-13T19:41:08.284Z,20.80
2018-08-13T19:46:29.444Z,20.70
2018-08-13T19:48:59.535Z,20.70
2018-08-13T19:51:29.041Z,20.70
2018-08-13T19:53:58.391Z,20.70
2018-08-13T19:56:46.677Z,20.70
2018-08-13T19:59:14.816Z,20.70
2018-08-13T20:01:43.223Z,20.70
2018-08-13T20:04:12.355Z,20.70
2018-08-13T20:06:47.865Z,20.60
2018-08-13T20:09:16.574Z,20.50
2018-08-13T20:11:50.963Z,20.50
2018-08-13T20:14:20.119Z,20.50
2018-08-13T20:16:48.213Z,20.50
2018-08-13T20:19:21.148Z,20.50
2018-08-13T20:21:49.211Z,20.60
2018-08-13T20:24:17.368Z,20.60
2018-08-13T20:26:46.478Z,20.60
2018-08-13T20:29:15.677Z,20.50
2018-08-13T20:31:43.749Z,20.40
2018-08-13T20:34:28.702Z,20.30
2018-08-13T20:37:01.027Z,20.20
2018-08-13T20:39:39.417Z,20.10
2018-08-13T20:42:07.603Z,20.00
2018-08-13T20:44:35.651Z,20.00
2018-08-13T20:47:03.722Z,19.90
2018-08-13T20:49:31.788Z,19.90
2018-08-13T20:51:59.918Z,19.70
2018-08-13T20:54:27.973Z,19.70
2018-08-13T20:56:56.051Z,19.70
2018-08-13T20:59:24.100Z,19.70
2018-08-13T21:01:52.175Z,19.60
2018-08-13T21:04:20.243Z,19.60
2018-08-13T21:06:48.330Z,19.60
2018-08-13T21:09:16.627Z,19.60
2018-08-13T21:11:44.710Z,19.70
2018-08-13T21:14:12.781Z,19.70
2018-08-13T21:16:40.842Z,19.70
2018-08-13T21:19:08.944Z,19.70
2018-08-13T21:21:37.016Z,19.70
2018-08-13T21:24:05.349Z,19.60
2018-08-13T21:26:33.503Z,19.60
2018-08-13T21:29:01.583Z,19.50
2018-08-13T21:31:29.639Z,19.50
2018-08-13T21:33:57.879Z,19.40
2018-08-13T21:36:26.305Z,19.30
2018-08-13T21:38:54.401Z,19.30
2018-08-13T21:41:22.473Z,19.30
2018-08-13T21:43:50.762Z,19.30
2018-08-13T21:46:19.457Z,19.30
2018-08-13T21:48:47.514Z,19.30
2018-08-13T21:51:15.551Z,19.30
2018-08-13T21:53:43.638Z,19.30
2018-08-13T21:56:11.736Z,19.30
2018-08-13T21:58:40.168Z,19.30
2018-08-13T22:02:13.274Z,19.40
2018-08-13T22:04:42.590Z,19.40
2018-08-13T22:07:11.122Z,19.40
2018-08-13T22:09:39.230Z,19.40
2018-08-13T22:12:12.707Z,19.40
2018-08-13T22:14:40.775Z,19.40
2018-08-13T22:17:09.120Z,19.40
2018-08-13T22:19:37.174Z,19.40
2018-08-13T22:22:05.715Z,19.40
2018-08-13T22:24:45.518Z,19.30
2018-08-13T22:27:14.330Z,19.30
2018-08-13T22:29:42.593Z,19.30
2018-08-13T22:32:10.947Z,19.30
2018-08-13T22:34:39.659Z,19.30
2018-08-13T22:37:07.750Z,19.30
2018-08-13T22:39:35.905Z,19.20
2018-08-13T22:42:04.123Z,19.10
2018-08-13T22:44:32.470Z,19.20
2018-08-13T22:47:00.735Z,19.20
2018-08-13T22:49:28.816Z,19.20
2018-08-13T22:51:56.989Z,19.10
2018-08-13T22:54:25.038Z,19.10
2018-08-13T22:56:53.123Z,19.00
2018-08-13T22:59:21.182Z,19.00
2018-08-13T23:01:49.272Z,18.90
2018-08-13T23:04:17.315Z,18.80
2018-08-13T23:06:45.377Z,18.80
2018-08-13T23:09:13.463Z,18.80
2018-08-13T23:11:42.098Z,18.70
2018-08-13T23:14:10.171Z,18.70
2018-08-13T23:16:38.501Z,18.60
2018-08-13T23:19:06.671Z,18.60
2018-08-13T23:21:34.689Z,18.60
2018-08-13T23:24:02.817Z,18.60
2018-08-13T23:26:30.918Z,18.60
2018-08-13T23:28:59.586Z,18.60
2018-08-13T23:31:28.022Z,18.50
2018-08-13T23:33:56.190Z,18.60
2018-08-13T23:36:24.285Z,18.60
2018-08-13T23:38:52.898Z,18.70
2018-08-13T23:41:21.190Z,18.70
2018-08-13T23:43:49.267Z,18.80
2018-08-13T23:46:17.339Z,18.80
2018-08-13T23:48:45.438Z,18.80
2018-08-13T23:51:13.505Z,18.80
2018-08-13T23:53:41.561Z,18.70
2018-08-13T23:56:10.026Z,18.70
2018-08-13T23:58:38.082Z,18.60
